Quick Links (Output Below):   Max & Min Temps   /   Climate Reports   /   Zone Forecasts
River Forecasts   /   Forestry Forecasts   /   Aviation Forecasts   /   Radars   /   Features

Terminal Aerodrome Forecast (Hot Springs)

Pick a Site:
Arkadelphia | El Dorado | Fayetteville | Fort Smith | Harrison | Highfill | Hot Springs | Jonesboro
Little Rock | Monticello | Mountain Home | Pine Bluff | Texarkana
 Forecast 

KHOT 241734Z 2418/2518 18007KT P6SM VCSH SCT050
     FM250100 10003KT P6SM FEW250
     FM251500 13005KT P6SM FEW040 SCT250=


 Latest METARs (Observations) 
How to Decode METARs
22Z KHOT 242153Z AUTO 21004KT 10SM CLR 32/20 A2999 RMK AO2 SLP150
         T03170200
         
21Z KHOT 242053Z AUTO 13005KT 10SM CLR 32/20 A3001 RMK AO2 SLP156
         T03170200 56022
         
20Z KHOT 241953Z AUTO 20006KT 10SM CLR 32/20 A3003 RMK AO2 SLP161
         T03170200
         
19Z KHOT 241853Z AUTO 22005KT 10SM FEW046 32/20 A3006 RMK AO2 SLP170
         T03170200
         
18Z KHOT 241753Z AUTO 19007KT 10SM CLR 32/21 A3008 RMK AO2 SLP177
         T03170206 10317 20211 58005
         
17Z KHOT 241653Z AUTO 19005KT 10SM CLR 31/22 A3009 RMK AO2 SLP181
         T03060222
         
16Z KHOT 241553Z AUTO 14003KT 10SM CLR 29/23 A3009 RMK AO2 SLP183
         T02940228
         
15Z KHOT 241453Z AUTO 00000KT 10SM CLR 27/22 A3009 RMK AO2 SLP183
         T02720222 51006
         
14Z KHOT 241353Z AUTO 00000KT 10SM CLR 25/22 A3009 RMK AO2 SLP182
         T02500217
         
13Z KHOT 241253Z AUTO 00000KT 9SM CLR 23/21 A3009 RMK AO2 SLP181
         T02280211
         
***** Today's Observations (Above) *****


Back to Main Page
http://www.srh.noaa.gov/lzk/qfcst.php

USA.gov is the U.S. government's official web portal to all federal, state and local government web resources and services.